KSHN/SHN METAR and TAF weather

Enter ICAO airport designator
Station Type Date Time Source
KSHN METAR 2022/06/27 08:53 UTC NOAA

KSHN 270853Z AUTO 00000KT 10SM CLR 13/11 A2994 RMK AO2 SLP138 T01330111 52001


Station Type Date Time Source
KSHN Decoded METAR 2022/06/27 08:53 UTC NOAA

SHELTON SANDERSON FIELD, WA, United States (KSHN) 47-14N 123-08W 82M
Jun 27, 2022 - 04:53 AM EDT / 2022.06.27 0853 UTC
Wind: Calm:0
Visibility: 10 mile(s):0
Sky conditions: clear
Temperature: 55.9 F (13.3 C)
Dew Point: 52.0 F (11.1 C)
Relative Humidity: 86%
Pressure (altimeter): 29.94 in. Hg (1013 hPa)
Pressure tendency: 0.00 inches (0.1 hPa) higher than three hours ago
ob: KSHN 270853Z AUTO 00000KT 10SM CLR 13/11 A2994 RMK AO2 SLP138 T01330111 52001
cycle: 9

Station Type Date Time Source
KSHN TAF UTC NOAA

Error!

Example: see airport list